createdAt,value
2019-01-27T00:01:28.404Z,63.17
2019-01-27T00:03:37.903Z,56.77
2019-01-27T00:05:44.171Z,62.37
2019-01-27T00:07:53.132Z,60.87
2019-01-27T00:09:59.812Z,54.93
2019-01-27T00:12:06.743Z,48.60
2019-01-27T00:14:14.811Z,56.90
2019-01-27T00:16:20.984Z,56.73
2019-01-27T00:18:27.071Z,65.43
2019-01-27T00:20:33.469Z,67.03
2019-01-27T00:22:39.844Z,60.50
2019-01-27T00:24:46.162Z,60.77
2019-01-27T00:26:52.412Z,55.03
2019-01-27T00:28:59.739Z,62.27
2019-01-27T00:31:06.704Z,51.63
2019-01-27T00:33:13.184Z,58.17
2019-01-27T00:35:19.532Z,56.23
2019-01-27T00:37:27.278Z,55.03
2019-01-27T00:39:33.696Z,55.37
2019-01-27T00:41:43.050Z,56.57
2019-01-27T00:43:49.419Z,57.63
2019-01-27T00:45:59.543Z,67.27
2019-01-27T00:48:05.807Z,65.23
2019-01-27T00:50:16.347Z,62.53
2019-01-27T00:52:23.460Z,55.20
2019-01-27T00:54:29.905Z,57.83
2019-01-27T00:56:37.675Z,56.63
2019-01-27T00:58:45.038Z,58.63
2019-01-27T01:00:51.596Z,63.37
2019-01-27T01:02:57.880Z,61.40
2019-01-27T01:05:04.143Z,58.97
2019-01-27T01:07:12.093Z,58.40
2019-01-27T01:09:20.194Z,63.67
2019-01-27T01:11:27.962Z,58.53
2019-01-27T01:13:34.230Z,59.47
2019-01-27T01:15:40.604Z,62.03
2019-01-27T01:17:48.495Z,63.60
2019-01-27T01:19:57.514Z,67.03
2019-01-27T01:22:03.923Z,65.87
2019-01-27T01:24:12.262Z,60.83
2019-01-27T01:26:18.549Z,60.77
2019-01-27T01:28:25.129Z,61.17
2019-01-27T01:30:33.116Z,65.97
2019-01-27T01:32:39.384Z,69.10
2019-01-27T01:34:45.526Z,74.73
2019-01-27T01:36:51.677Z,67.73
2019-01-27T01:38:57.854Z,77.27
2019-01-27T01:41:04.190Z,63.93
2019-01-27T01:43:10.724Z,62.67
2019-01-27T01:45:33.466Z,62.87
2019-01-27T01:47:41.108Z,67.97
2019-01-27T01:49:48.718Z,76.43
2019-01-27T01:51:55.482Z,71.37
2019-01-27T01:54:02.024Z,56.60
2019-01-27T01:56:10.062Z,59.83
2019-01-27T01:58:16.202Z,65.83
2019-01-27T02:00:28.332Z,64.73
2019-01-27T02:02:37.549Z,68.30
2019-01-27T02:04:44.370Z,60.67
2019-01-27T02:06:50.705Z,79.43
2019-01-27T02:08:57.670Z,70.60
2019-01-27T02:11:04.234Z,76.30
2019-01-27T02:13:10.810Z,73.17
2019-01-27T02:15:27.800Z,69.80
2019-01-27T02:17:35.287Z,75.43
2019-01-27T02:19:41.773Z,81.80
2019-01-27T02:21:48.180Z,77.93
2019-01-27T02:23:54.799Z,77.33
2019-01-27T02:26:01.054Z,66.60
2019-01-27T02:28:10.074Z,79.13
2019-01-27T02:30:19.295Z,67.73
2019-01-27T02:32:25.491Z,84.17
2019-01-27T02:34:34.201Z,66.63
2019-01-27T02:36:41.887Z,73.47
2019-01-27T02:38:47.937Z,74.60
2019-01-27T02:40:54.314Z,78.90
2019-01-27T02:43:00.556Z,73.07
2019-01-27T02:45:20.483Z,73.87
2019-01-27T02:47:26.715Z,73.67
2019-01-27T02:49:34.366Z,75.23
2019-01-27T02:51:41.850Z,73.17
2019-01-27T02:53:48.055Z,77.80
2019-01-27T02:55:54.273Z,87.23
2019-01-27T02:58:00.353Z,74.83
2019-01-27T03:00:18.694Z,72.43
2019-01-27T03:02:29.770Z,73.47
2019-01-27T03:04:36.030Z,79.07
2019-01-27T03:06:56.071Z,74.00
2019-01-27T03:09:04.090Z,73.87
2019-01-27T03:11:13.448Z,81.60
2019-01-27T03:13:21.301Z,89.47
2019-01-27T03:15:27.762Z,79.50
2019-01-27T03:17:36.061Z,84.33
2019-01-27T03:19:42.381Z,87.40
2019-01-27T03:21:48.883Z,83.77
2019-01-27T03:23:55.418Z,81.20
2019-01-27T03:26:02.174Z,83.03
2019-01-27T03:28:10.183Z,82.80
2019-01-27T03:30:24.434Z,75.63
2019-01-27T03:32:30.588Z,82.87
2019-01-27T03:34:37.527Z,75.57
2019-01-27T03:36:43.825Z,72.43
2019-01-27T03:38:50.300Z,89.97
2019-01-27T03:40:56.484Z,81.80
2019-01-27T03:43:02.757Z,85.93
2019-01-27T03:45:15.989Z,81.70
2019-01-27T03:47:23.395Z,73.57
2019-01-27T03:49:32.241Z,79.57
2019-01-27T03:51:38.780Z,75.17
2019-01-27T03:53:45.011Z,87.93
2019-01-27T03:55:52.763Z,88.80
2019-01-27T03:58:00.460Z,85.77
2019-01-27T04:00:16.643Z,82.17
2019-01-27T04:02:23.009Z,76.40
2019-01-27T04:04:30.593Z,89.50
2019-01-27T04:06:38.895Z,62.73
2019-01-27T04:08:45.056Z,95.67
2019-01-27T04:10:51.206Z,87.13
2019-01-27T04:12:57.378Z,98.23
2019-01-27T04:15:05.179Z,85.60
2019-01-27T04:17:14.299Z,92.00
2019-01-27T04:19:20.457Z,85.00
2019-01-27T04:21:28.155Z,94.57
2019-01-27T04:23:34.411Z,98.00
2019-01-27T04:25:43.254Z,98.50
2019-01-27T04:27:50.127Z,86.70
2019-01-27T04:29:56.886Z,87.57
2019-01-27T04:32:03.152Z,96.50
2019-01-27T04:34:09.589Z,90.23
2019-01-27T04:36:16.304Z,93.53
2019-01-27T04:38:23.736Z,89.93
2019-01-27T04:40:29.819Z,88.63
2019-01-27T04:42:36.278Z,94.10
2019-01-27T04:44:44.208Z,97.07
2019-01-27T04:46:50.427Z,96.17
2019-01-27T04:48:56.981Z,95.57
2019-01-27T04:51:04.871Z,94.60
2019-01-27T04:53:12.278Z,95.60
2019-01-27T04:55:20.138Z,89.50
2019-01-27T04:57:26.239Z,94.37
2019-01-27T04:59:32.718Z,99.83
2019-01-27T05:01:38.958Z,98.20
2019-01-27T05:03:50.856Z,102.37
2019-01-27T05:05:56.920Z,117.20
2019-01-27T05:08:03.891Z,89.40
2019-01-27T05:10:15.691Z,102.10
2019-01-27T05:12:22.054Z,105.20
2019-01-27T05:14:29.703Z,111.80
2019-01-27T05:16:36.001Z,90.00
2019-01-27T05:18:42.256Z,103.33
2019-01-27T05:20:48.829Z,95.90
2019-01-27T05:22:55.084Z,93.00
2019-01-27T05:25:01.436Z,93.40
2019-01-27T05:27:08.952Z,89.53
2019-01-27T05:29:15.187Z,97.93
2019-01-27T05:31:21.937Z,97.53
2019-01-27T05:33:28.441Z,90.60
2019-01-27T05:35:39.031Z,92.17
2019-01-27T05:37:45.607Z,81.50
2019-01-27T05:39:52.296Z,91.67
2019-01-27T05:41:59.039Z,85.50
2019-01-27T05:44:05.560Z,78.77
2019-01-27T05:46:12.177Z,102.63
2019-01-27T05:48:18.496Z,98.00
2019-01-27T05:50:24.566Z,98.37
2019-01-27T05:52:31.358Z,90.77
2019-01-27T05:54:38.099Z,93.27
2019-01-27T05:56:44.424Z,86.77
2019-01-27T05:58:53.603Z,95.33
2019-01-27T06:01:01.098Z,91.10
2019-01-27T06:03:07.413Z,103.30
2019-01-27T06:05:14.015Z,98.30
2019-01-27T06:07:20.167Z,100.67
2019-01-27T06:09:26.517Z,104.97
2019-01-27T06:11:34.435Z,99.97
2019-01-27T06:13:41.110Z,96.27
2019-01-27T06:15:47.485Z,99.90
2019-01-27T06:17:54.024Z,80.37
2019-01-27T06:20:00.484Z,92.47
2019-01-27T06:22:08.589Z,93.03
2019-01-27T06:24:16.604Z,95.50
2019-01-27T06:26:23.364Z,92.97
2019-01-27T06:28:30.650Z,86.00
2019-01-27T06:30:39.812Z,97.53
2019-01-27T06:32:53.877Z,89.63
2019-01-27T06:35:00.708Z,105.10
2019-01-27T06:37:06.913Z,94.03
2019-01-27T06:39:14.338Z,101.77
2019-01-27T06:41:20.599Z,106.07
2019-01-27T06:43:26.901Z,109.20
2019-01-27T06:45:34.859Z,94.73
2019-01-27T06:47:42.183Z,101.07
2019-01-27T06:49:49.325Z,90.60
2019-01-27T06:51:55.725Z,98.00
2019-01-27T06:54:01.853Z,87.27
2019-01-27T06:56:10.674Z,96.10
2019-01-27T06:58:18.050Z,94.57
2019-01-27T07:00:29.516Z,99.57
2019-01-27T07:02:39.790Z,103.20
2019-01-27T07:04:49.862Z,112.73
2019-01-27T07:07:08.087Z,95.50
2019-01-27T07:09:22.852Z,97.40
2019-01-27T07:11:39.462Z,102.07
2019-01-27T07:14:06.692Z,104.80
2019-01-27T07:16:16.329Z,95.33
2019-01-27T07:18:34.884Z,111.27
2019-01-27T07:20:43.086Z,105.23
2019-01-27T07:22:51.202Z,100.13
2019-01-27T07:25:02.245Z,100.70
2019-01-27T07:27:12.565Z,97.40
2019-01-27T07:29:37.723Z,104.90
2019-01-27T07:32:02.325Z,103.13
2019-01-27T07:34:24.753Z,97.37
2019-01-27T07:36:42.681Z,110.70
2019-01-27T07:38:50.517Z,112.80
2019-01-27T07:41:15.579Z,108.70
2019-01-27T07:43:30.854Z,115.87
2019-01-27T07:45:41.489Z,121.20
2019-01-27T07:47:56.177Z,111.13
2019-01-27T07:50:25.156Z,102.50
2019-01-27T07:52:34.613Z,134.70
2019-01-27T07:54:42.704Z,109.70
2019-01-27T07:56:55.425Z,117.57
2019-01-27T07:59:06.485Z,118.07
2019-01-27T08:01:14.486Z,110.90
2019-01-27T08:03:22.449Z,112.40
2019-01-27T08:05:46.662Z,111.13
2019-01-27T08:07:57.840Z,109.67
2019-01-27T08:10:08.076Z,121.47
2019-01-27T08:12:17.231Z,110.90
2019-01-27T08:14:31.331Z,96.93
2019-01-27T08:16:52.702Z,119.60
2019-01-27T08:19:13.090Z,130.27
2019-01-27T08:21:23.550Z,143.40
2019-01-27T08:23:38.700Z,127.00
2019-01-27T08:25:47.963Z,128.07
2019-01-27T08:27:58.391Z,125.67
2019-01-27T08:30:14.321Z,130.23
2019-01-27T08:32:20.501Z,136.93
2019-01-27T08:34:31.500Z,129.00
2019-01-27T08:36:42.279Z,135.07
2019-01-27T08:39:07.180Z,139.10
2019-01-27T08:41:17.936Z,132.70
2019-01-27T08:43:27.001Z,157.83
2019-01-27T08:45:38.850Z,133.00
2019-01-27T08:47:46.380Z,127.03
2019-01-27T08:49:52.760Z,112.77
2019-01-27T08:51:59.120Z,111.60
2019-01-27T08:54:05.551Z,119.83
2019-01-27T08:56:12.100Z,128.33
2019-01-27T08:58:20.002Z,127.17
2019-01-27T09:00:27.827Z,123.33
2019-01-27T09:02:36.000Z,137.90
2019-01-27T09:04:50.764Z,118.90
2019-01-27T09:06:58.878Z,137.33
2019-01-27T09:09:18.951Z,137.20
2019-01-27T09:11:32.901Z,145.30
2019-01-27T09:13:44.590Z,125.70
2019-01-27T09:15:55.912Z,125.37
2019-01-27T09:18:08.797Z,119.67
2019-01-27T09:20:27.413Z,125.50
2019-01-27T09:22:41.260Z,124.83
2019-01-27T09:24:59.387Z,122.63
2019-01-27T09:27:07.400Z,126.77
2019-01-27T09:29:15.743Z,130.97
2019-01-27T09:31:26.780Z,306.87
2019-01-27T09:33:35.917Z,547.63
2019-01-27T09:35:54.611Z,157.80
2019-01-27T09:38:05.330Z,129.20
2019-01-27T09:40:19.161Z,133.23
2019-01-27T09:42:29.329Z,136.80
2019-01-27T09:44:48.998Z,159.57
2019-01-27T09:47:15.621Z,154.53
2019-01-27T09:49:38.501Z,138.53
2019-01-27T09:51:48.585Z,133.33
2019-01-27T09:54:11.980Z,129.13
2019-01-27T09:56:23.168Z,137.03
2019-01-27T09:58:46.320Z,124.87
2019-01-27T10:00:57.605Z,118.13
2019-01-27T10:03:10.423Z,116.57
2019-01-27T10:05:18.620Z,109.57
2019-01-27T10:07:36.879Z,140.87
2019-01-27T10:09:50.801Z,119.30
2019-01-27T10:12:01.773Z,152.20
2019-01-27T10:14:16.127Z,125.90
2019-01-27T10:16:30.677Z,144.30
2019-01-27T10:18:45.874Z,134.53
2019-01-27T10:21:01.520Z,125.70
2019-01-27T10:23:18.334Z,143.63
2019-01-27T10:25:29.560Z,143.10
2019-01-27T10:27:53.489Z,146.37
2019-01-27T10:30:01.481Z,135.00
2019-01-27T10:32:10.423Z,137.43
2019-01-27T10:34:28.801Z,133.77
2019-01-27T10:36:47.191Z,131.73
2019-01-27T10:39:05.680Z,139.50
2019-01-27T10:41:15.280Z,130.50
2019-01-27T10:43:41.721Z,129.93
2019-01-27T10:46:01.804Z,139.13
2019-01-27T10:48:13.600Z,145.83
2019-01-27T10:50:30.929Z,140.47
2019-01-27T10:52:38.911Z,137.87
2019-01-27T10:54:59.010Z,154.87
2019-01-27T10:57:06.950Z,145.60
2019-01-27T10:59:22.168Z,126.53
2019-01-27T11:01:29.122Z,121.47
2019-01-27T11:03:51.383Z,137.67
2019-01-27T11:06:09.620Z,149.00
2019-01-27T11:08:17.425Z,145.53
2019-01-27T11:10:32.884Z,153.53
2019-01-27T11:12:56.659Z,157.70
2019-01-27T11:15:09.984Z,139.17
2019-01-27T11:17:34.708Z,147.63
2019-01-27T11:19:45.859Z,150.43
2019-01-27T11:21:51.872Z,142.77
2019-01-27T11:24:10.575Z,146.27
2019-01-27T11:26:19.899Z,129.20
2019-01-27T11:28:31.229Z,144.77
2019-01-27T11:30:43.678Z,148.63
2019-01-27T11:32:55.618Z,145.93
2019-01-27T11:35:24.330Z,145.10
2019-01-27T11:37:42.808Z,138.73
2019-01-27T11:40:09.481Z,133.57
2019-01-27T11:42:20.515Z,137.67
2019-01-27T11:44:28.569Z,123.63
2019-01-27T11:46:36.455Z,129.57
2019-01-27T11:48:44.714Z,198.47
2019-01-27T11:50:52.927Z,156.27
2019-01-27T11:52:59.241Z,228.17
2019-01-27T11:55:06.788Z,187.20
2019-01-27T11:57:19.311Z,242.60
2019-01-27T11:59:26.133Z,167.07
2019-01-27T12:01:32.721Z,126.33
2019-01-27T12:03:39.059Z,123.13
2019-01-27T12:05:45.717Z,132.60
2019-01-27T12:07:52.508Z,141.43
2019-01-27T12:09:58.907Z,131.13
2019-01-27T12:12:05.637Z,123.43
2019-01-27T12:14:12.765Z,136.87
2019-01-27T12:16:19.405Z,130.60
2019-01-27T12:18:25.780Z,134.33
2019-01-27T12:20:32.709Z,132.77
2019-01-27T12:22:40.058Z,128.60
2019-01-27T12:24:47.541Z,125.33
2019-01-27T12:26:54.551Z,143.50
2019-01-27T12:29:01.259Z,128.27
2019-01-27T12:31:07.995Z,127.50
2019-01-27T12:33:14.485Z,138.37
2019-01-27T12:35:21.146Z,118.90
2019-01-27T12:37:28.848Z,134.93
2019-01-27T12:39:35.761Z,137.93
2019-01-27T12:41:44.802Z,147.47
2019-01-27T12:43:52.564Z,133.30
2019-01-27T12:45:59.204Z,144.13
2019-01-27T12:48:06.522Z,136.37
2019-01-27T12:50:16.087Z,124.93
2019-01-27T12:52:23.142Z,138.97
2019-01-27T12:54:29.563Z,128.20
2019-01-27T12:56:36.266Z,134.63
2019-01-27T12:58:43.003Z,126.90
2019-01-27T13:00:53.870Z,129.77
2019-01-27T13:03:00.813Z,123.07
2019-01-27T13:05:10.327Z,127.07
2019-01-27T13:07:16.262Z,134.10
2019-01-27T13:09:22.694Z,124.43
2019-01-27T13:11:29.697Z,122.57
2019-01-27T13:13:36.952Z,134.10
2019-01-27T13:15:45.449Z,132.73
2019-01-27T13:17:52.032Z,120.87
2019-01-27T13:19:59.799Z,124.97
2019-01-27T13:22:06.916Z,115.33
2019-01-27T13:24:13.649Z,122.40
2019-01-27T13:26:20.352Z,106.57
2019-01-27T13:28:26.943Z,127.37
2019-01-27T13:30:33.699Z,120.97
2019-01-27T13:32:40.412Z,116.33
2019-01-27T13:34:47.101Z,136.87
2019-01-27T13:36:53.442Z,135.00
2019-01-27T13:39:01.751Z,118.50
2019-01-27T13:41:09.623Z,129.37
2019-01-27T13:43:16.522Z,121.07
2019-01-27T13:45:29.802Z,120.80
2019-01-27T13:47:36.207Z,117.83
2019-01-27T13:49:42.907Z,111.07
2019-01-27T13:51:50.064Z,113.50
2019-01-27T13:53:56.862Z,103.77
2019-01-27T13:56:03.591Z,105.40
2019-01-27T13:58:10.327Z,116.87
2019-01-27T14:00:33.265Z,113.53
2019-01-27T14:02:41.772Z,102.03
2019-01-27T14:04:48.712Z,120.10
2019-01-27T14:06:55.355Z,192.13
2019-01-27T14:09:02.079Z,204.00
2019-01-27T14:11:10.984Z,262.27
2019-01-27T14:13:17.609Z,165.10
2019-01-27T14:15:30.763Z,131.00
2019-01-27T14:17:37.612Z,114.10
2019-01-27T14:19:44.373Z,111.37
2019-01-27T14:21:51.193Z,111.80
2019-01-27T14:23:57.842Z,115.57
2019-01-27T14:26:04.700Z,98.17
2019-01-27T14:28:11.152Z,95.40
2019-01-27T14:30:27.465Z,106.30
2019-01-27T14:32:34.522Z,111.70
2019-01-27T14:34:41.763Z,115.63
2019-01-27T14:36:48.503Z,117.90
2019-01-27T14:38:55.392Z,110.90
2019-01-27T14:41:02.123Z,113.87
2019-01-27T14:43:08.812Z,106.63
2019-01-27T14:45:19.442Z,118.90
2019-01-27T14:47:26.139Z,112.60
2019-01-27T14:49:32.924Z,104.33
2019-01-27T14:51:39.794Z,110.43
2019-01-27T14:53:46.810Z,117.53
2019-01-27T14:55:53.458Z,116.57
2019-01-27T14:58:00.186Z,99.30
2019-01-27T15:00:20.266Z,96.93
2019-01-27T15:02:26.928Z,91.67
2019-01-27T15:04:33.928Z,92.60
2019-01-27T15:06:40.688Z,92.70
2019-01-27T15:08:47.277Z,93.30
2019-01-27T15:10:54.068Z,93.97
2019-01-27T15:13:01.185Z,89.63
2019-01-27T15:15:14.388Z,87.63
2019-01-27T15:17:21.339Z,96.00
2019-01-27T15:19:28.249Z,95.30
2019-01-27T15:21:35.037Z,97.77
2019-01-27T15:23:41.488Z,103.97
2019-01-27T15:25:48.887Z,95.47
2019-01-27T15:27:55.782Z,78.50
2019-01-27T15:30:03.582Z,84.77
2019-01-27T15:32:10.473Z,87.30
2019-01-27T15:34:17.184Z,86.43
2019-01-27T15:36:23.991Z,94.13
2019-01-27T15:38:31.096Z,92.43
2019-01-27T15:40:37.774Z,80.07
2019-01-27T15:42:45.072Z,82.37
2019-01-27T15:44:51.894Z,99.47
2019-01-27T15:46:59.035Z,102.93
2019-01-27T15:49:06.182Z,88.53
2019-01-27T15:51:12.854Z,82.40
2019-01-27T15:53:19.910Z,85.03
2019-01-27T15:55:26.830Z,87.83
2019-01-27T15:57:34.657Z,85.60
2019-01-27T15:59:42.743Z,85.43
2019-01-27T16:01:49.726Z,96.07
2019-01-27T16:03:56.778Z,165.10
2019-01-27T16:06:07.507Z,98.97
2019-01-27T16:08:15.749Z,102.47
2019-01-27T16:10:24.347Z,125.77
2019-01-27T16:12:32.350Z,106.70
2019-01-27T16:14:39.619Z,93.67
2019-01-27T16:16:46.420Z,97.80
2019-01-27T16:18:58.864Z,93.13
2019-01-27T16:21:01.732Z,83.90
2019-01-27T16:23:16.175Z,77.03
2019-01-27T16:25:23.671Z,84.83
2019-01-27T16:27:30.647Z,85.93
2019-01-27T16:29:39.359Z,96.10
2019-01-27T16:31:47.957Z,79.30
2019-01-27T16:34:00.492Z,69.60
2019-01-27T16:36:07.851Z,74.90
2019-01-27T16:38:14.610Z,82.47
2019-01-27T16:40:21.401Z,88.80
2019-01-27T16:42:28.361Z,81.33
2019-01-27T16:44:35.168Z,79.03
2019-01-27T16:46:41.904Z,76.67
2019-01-27T16:48:48.691Z,68.93
2019-01-27T16:50:57.342Z,79.93
2019-01-27T16:53:04.053Z,73.07
2019-01-27T16:55:21.768Z,99.83
2019-01-27T16:57:29.651Z,133.13
2019-01-27T16:59:36.660Z,143.63
2019-01-27T17:01:43.661Z,144.17
2019-01-27T17:03:50.692Z,86.53
2019-01-27T17:05:57.741Z,85.80
2019-01-27T17:08:04.570Z,84.93
2019-01-27T17:10:18.465Z,73.77
2019-01-27T17:12:25.401Z,78.13
2019-01-27T17:14:32.161Z,69.17
2019-01-27T17:16:38.848Z,86.70
2019-01-27T17:18:46.571Z,79.97
2019-01-27T17:20:53.872Z,78.10
2019-01-27T17:23:01.538Z,70.23
2019-01-27T17:25:11.731Z,71.77
2019-01-27T17:27:18.228Z,76.10
2019-01-27T17:29:25.408Z,68.97
2019-01-27T17:31:33.291Z,69.00
2019-01-27T17:33:40.572Z,68.43
2019-01-27T17:35:47.361Z,78.20
2019-01-27T17:37:54.422Z,70.63
2019-01-27T17:40:01.518Z,74.83
2019-01-27T17:42:08.418Z,79.17
2019-01-27T17:44:15.386Z,81.57
2019-01-27T17:46:22.178Z,73.10
2019-01-27T17:48:29.058Z,72.47
2019-01-27T17:50:36.158Z,68.23
2019-01-27T17:52:43.200Z,71.43
2019-01-27T17:54:50.318Z,69.07
2019-01-27T17:57:01.627Z,71.70
2019-01-27T17:59:11.414Z,76.30
2019-01-27T18:01:35.604Z,101.13
2019-01-27T18:03:56.889Z,96.87
2019-01-27T18:06:08.364Z,90.00
2019-01-27T18:08:16.931Z,87.80
2019-01-27T18:10:25.223Z,71.27
2019-01-27T18:12:43.029Z,71.07
2019-01-27T18:14:49.843Z,66.60
2019-01-27T18:16:56.863Z,68.80
2019-01-27T18:19:03.744Z,71.63
2019-01-27T18:21:10.774Z,77.73
2019-01-27T18:23:17.593Z,64.40
2019-01-27T18:25:24.692Z,67.50
2019-01-27T18:27:31.347Z,59.33
2019-01-27T18:29:38.492Z,60.47
2019-01-27T18:31:45.398Z,62.37
2019-01-27T18:33:52.380Z,58.77
2019-01-27T18:35:58.930Z,73.57
2019-01-27T18:38:06.109Z,89.33
2019-01-27T18:40:14.195Z,87.10
2019-01-27T18:42:21.102Z,94.80
2019-01-27T18:44:28.415Z,75.47
2019-01-27T18:46:35.014Z,64.73
2019-01-27T18:48:41.758Z,59.33
2019-01-27T18:50:48.698Z,69.03
2019-01-27T18:52:57.157Z,56.13
2019-01-27T18:55:06.290Z,51.53
2019-01-27T18:57:14.904Z,60.43
2019-01-27T18:59:24.752Z,67.17
2019-01-27T19:01:45.330Z,59.87
2019-01-27T19:04:09.118Z,53.57
2019-01-27T19:06:20.771Z,63.73
2019-01-27T19:08:29.240Z,52.70
2019-01-27T19:10:49.982Z,56.93
2019-01-27T19:12:58.849Z,69.23
2019-01-27T19:15:10.688Z,61.10
2019-01-27T19:17:30.012Z,47.67
2019-01-27T19:19:54.570Z,58.67
2019-01-27T19:22:03.177Z,57.00
2019-01-27T19:24:13.540Z,54.03
2019-01-27T19:26:24.770Z,55.93
2019-01-27T19:28:49.510Z,72.93
2019-01-27T19:31:06.988Z,69.87
2019-01-27T19:33:18.680Z,66.23
2019-01-27T19:35:36.010Z,65.70
2019-01-27T19:37:53.588Z,62.00
2019-01-27T19:40:02.312Z,69.50
2019-01-27T19:42:10.707Z,57.63
2019-01-27T19:44:26.064Z,61.53
2019-01-27T19:46:50.046Z,63.63
2019-01-27T19:49:17.004Z,56.37
2019-01-27T19:51:33.496Z,56.43
2019-01-27T19:53:50.925Z,59.03
2019-01-27T19:56:06.910Z,56.77
2019-01-27T19:58:22.396Z,67.40
2019-01-27T20:00:31.187Z,59.20
2019-01-27T20:02:56.214Z,61.67
2019-01-27T20:05:04.933Z,58.07
2019-01-27T20:07:28.946Z,55.80
2019-01-27T20:09:54.525Z,55.13
2019-01-27T20:12:03.873Z,56.50
2019-01-27T20:14:18.946Z,54.93
2019-01-27T20:16:40.146Z,117.73
2019-01-27T20:18:47.185Z,85.10
2019-01-27T20:20:59.903Z,58.73
2019-01-27T20:23:06.354Z,56.17
2019-01-27T20:25:18.305Z,58.60
2019-01-27T20:27:26.785Z,71.37
2019-01-27T20:29:39.762Z,59.40
2019-01-27T20:31:54.285Z,55.83
2019-01-27T20:34:02.229Z,77.00
2019-01-27T20:36:10.865Z,158.77
2019-01-27T20:38:37.666Z,59.30
2019-01-27T20:41:00.385Z,107.13
2019-01-27T20:43:21.265Z,95.30
2019-01-27T20:45:39.185Z,80.43
2019-01-27T20:47:48.149Z,109.57
2019-01-27T20:49:56.540Z,114.23
2019-01-27T20:52:10.927Z,89.90
2019-01-27T20:54:25.525Z,108.80
2019-01-27T20:56:34.486Z,65.40
2019-01-27T20:58:49.092Z,47.63
2019-01-27T21:01:00.848Z,42.20
2019-01-27T21:03:09.685Z,43.77
2019-01-27T21:05:23.765Z,40.43
2019-01-27T21:07:38.365Z,43.13
2019-01-27T21:10:04.278Z,37.90
2019-01-27T21:12:15.685Z,47.80
2019-01-27T21:14:29.933Z,43.10
2019-01-27T21:16:38.526Z,40.33
2019-01-27T21:18:50.209Z,46.90
2019-01-27T21:20:57.325Z,46.50
2019-01-27T21:23:04.505Z,41.87
2019-01-27T21:25:14.105Z,42.43
2019-01-27T21:27:20.925Z,40.90
2019-01-27T21:29:28.133Z,39.73
2019-01-27T21:31:35.245Z,41.87
2019-01-27T21:33:44.259Z,45.40
2019-01-27T21:35:50.965Z,42.00
2019-01-27T21:37:57.945Z,45.57
2019-01-27T21:40:07.445Z,45.07
2019-01-27T21:42:14.544Z,42.67
2019-01-27T21:44:21.805Z,41.07
2019-01-27T21:46:28.425Z,43.23
2019-01-27T21:48:35.066Z,38.83
2019-01-27T21:50:41.886Z,39.30
2019-01-27T21:52:50.187Z,36.43
2019-01-27T21:54:56.785Z,38.27
2019-01-27T21:57:03.613Z,35.93
2019-01-27T21:59:10.465Z,37.27
2019-01-27T22:01:16.568Z,35.53
2019-01-27T22:03:42.634Z,40.67
2019-01-27T22:05:49.566Z,32.73
2019-01-27T22:07:56.015Z,39.83
2019-01-27T22:10:03.008Z,35.47
2019-01-27T22:12:09.526Z,41.80
2019-01-27T22:14:17.734Z,33.33
2019-01-27T22:16:24.225Z,34.83
2019-01-27T22:18:30.848Z,37.07
2019-01-27T22:20:37.185Z,35.47
2019-01-27T22:22:43.888Z,32.33
2019-01-27T22:24:50.558Z,37.97
2019-01-27T22:26:57.325Z,34.53
2019-01-27T22:29:05.491Z,36.10
2019-01-27T22:31:13.206Z,38.27
2019-01-27T22:33:19.887Z,38.27
2019-01-27T22:35:26.305Z,34.67
2019-01-27T22:37:32.845Z,45.03
2019-01-27T22:39:39.234Z,47.90
2019-01-27T22:41:46.347Z,45.23
2019-01-27T22:43:52.766Z,36.37
2019-01-27T22:45:59.165Z,31.43
2019-01-27T22:48:05.507Z,31.53
2019-01-27T22:50:17.546Z,31.13
2019-01-27T22:52:23.986Z,35.50
2019-01-27T22:54:30.325Z,34.73
2019-01-27T22:56:36.965Z,36.23
2019-01-27T22:58:43.086Z,34.87
2019-01-27T23:01:01.826Z,31.23
2019-01-27T23:03:09.725Z,35.50
2019-01-27T23:05:16.121Z,32.77
2019-01-27T23:07:22.566Z,34.97
2019-01-27T23:09:29.106Z,33.60
2019-01-27T23:11:35.706Z,32.33
2019-01-27T23:13:42.155Z,33.87
2019-01-27T23:15:48.757Z,36.97
2019-01-27T23:17:55.466Z,30.33
2019-01-27T23:20:02.005Z,36.10
2019-01-27T23:22:09.236Z,36.73
2019-01-27T23:24:16.745Z,35.90
2019-01-27T23:26:23.086Z,34.67
2019-01-27T23:28:29.425Z,35.03
2019-01-27T23:30:36.027Z,33.67
2019-01-27T23:32:46.886Z,34.83
2019-01-27T23:34:53.245Z,29.60
2019-01-27T23:36:59.666Z,28.53
2019-01-27T23:39:09.074Z,40.00
2019-01-27T23:41:15.627Z,34.87
2019-01-27T23:43:21.934Z,38.70
2019-01-27T23:45:28.266Z,39.03
2019-01-27T23:47:34.926Z,28.43
2019-01-27T23:49:41.546Z,31.83
2019-01-27T23:51:47.946Z,33.00
2019-01-27T23:53:54.405Z,30.47
2019-01-27T23:56:01.566Z,34.57
2019-01-27T23:58:07.986Z,30.90
